Denzil, Canada
Current Conditions -  °F | °C
As of 12:00 AM on Sunday 26 Oct 2014 (Local Time) from CYKY Reporting Station
Overcast Overcast  
Wind Chill: 35°   Ceiling: 24000
Heat Index: 43°   Visibility: 15mi
Dew Point: 32°   Wind: 17mph
Humidity: 66%   Direction: 120°ESE
Pressure: 29.54"   Gusts: 28mph
Location:  52.23°N, 109.65°W
Report Text: CYKY 260600Z 12015G24KT 15SM FEW070 OVC240 06/M00 A2954 RMK AC2CI6 SLP016
Loading
Personal Weather Stations






























Interactive Weather Map
Tropical Storm Tracking
New forecast layout! Learn more

10-Day Weather Forecast

Advertisements
Track Severe Weather on mobile